MOL Commitment — 7JXG — position and weather

sailwx.info

Track history (hours):
 
Tides and Currents Weather Stations Pressure Air Temp Water Temp Dewpoint Dewpoint Depression Visibility Wind Speed Wind Dir Waves Ship Positions

MOL Commitment

Last reported at 2017-Nov-17 23:46 UTC. Time now 2017-Nov-18 21:22 UTC.
Position N 01°23' E 104°26'.

Length 316 m; draft 12.7 m.

Type: Ship (hazmat cat A). MMSI: 431332000.

Date/timePositionNaut miles runAvg speedWind from/ knotsBaromVisibWave heightAir tempDewpointWater temp
2017-Nov-17 23:46N 01°23' E 104°26'2616.6
2017-Nov-17 22:12N 01°15' E 104°01'314.7
2017-Nov-17 22:00N 01°14' E 103°58'611.4
2017-Nov-17 21:30N 01°13' E 103°53'3 5.3
2017-Nov-17 21:00N 01°15' E 103°51'1 1.5
2017-Nov-17 20:29N 01°16' E 103°51'0 0.0
2017-Nov-17 19:59N 01°16' E 103°51'0 0.0
2017-Nov-17 19:29N 01°16' E 103°51'0 0.0
2017-Nov-17 18:59N 01°16' E 103°51'0 0.0
2017-Nov-17 18:29N 01°16' E 103°51'0 0.0
2017-Nov-17 17:59N 01°16' E 103°51'0 0.0
2017-Nov-17 17:29N 01°16' E 103°51'0 0.0
2017-Nov-17 16:59N 01°16' E 103°51'0 0.0
2017-Nov-17 16:29N 01°16' E 103°51'0 0.0
2017-Nov-17 15:59N 01°16' E 103°51'0 0.0
2017-Nov-17 15:29N 01°16' E 103°51'0 0.0
2017-Nov-17 14:59N 01°16' E 103°51'0 0.0
2017-Nov-17 14:29N 01°16' E 103°51'0 0.0
2017-Nov-17 13:53N 01°16' E 103°51'0 0.0
2017-Nov-17 13:29N 01°16' E 103°51'0 0.0
2017-Nov-17 12:59N 01°16' E 103°51'0 0.0
2017-Nov-17 12:29N 01°16' E 103°51'0 0.0
2017-Nov-17 11:59N 01°16' E 103°51'0 0.0
2017-Nov-17 11:29N 01°16' E 103°51'0 0.0
2017-Nov-17 10:59N 01°16' E 103°51'0 0.0
2017-Nov-17 10:29N 01°16' E 103°51'0 0.0
2017-Nov-17 09:59N 01°16' E 103°51'0 0.0
2017-Nov-17 09:29N 01°16' E 103°51'0 0.0
2017-Nov-17 08:56N 01°16' E 103°51'0 0.0
2017-Nov-17 08:29N 01°16' E 103°51'0 0.0
2017-Nov-17 07:53N 01°16' E 103°51'0 0.0
2017-Nov-17 07:29N 01°16' E 103°51'0 0.0
2017-Nov-17 06:59N 01°16' E 103°51'0 0.0
2017-Nov-17 06:29N 01°16' E 103°51'0 0.0
2017-Nov-17 05:59N 01°16' E 103°51'0 0.0
2017-Nov-17 05:29N 01°16' E 103°51'0 0.0
2017-Nov-17 04:59N 01°16' E 103°51'0 0.0
2017-Nov-17 04:29N 01°16' E 103°51'0 0.0
2017-Nov-17 03:58N 01°16' E 103°51'0 0.0
2017-Nov-17 03:28N 01°16' E 103°51'0 0.0
2017-Nov-17 02:59N 01°16' E 103°51'0 0.0
2017-Nov-17 02:28N 01°16' E 103°51'0 0.0
2017-Nov-17 01:59N 01°16' E 103°51'0 0.0
2017-Nov-17 01:22N 01°16' E 103°51'0 0.0
2017-Nov-17 00:59N 01°16' E 103°51'0 0.0
2017-Nov-17 00:28N 01°16' E 103°51'0 0.0
2017-Nov-16 23:55N 01°16' E 103°51'0 0.0
2017-Nov-16 23:28N 01°16' E 103°51'0 0.0
2017-Nov-16 22:59N 01°16' E 103°51'1 1.2
2017-Nov-16 22:30N 01°15' E 103°51'3 6.5
2017-Nov-16 22:00N 01°14' E 103°54'4 7.4
2017-Nov-16 21:30N 01°15' E 103°57'5 9.3
2017-Nov-16 21:00N 01°16' E 104°02'611.3
2017-Nov-16 20:30N 01°17' E 104°07'  
2017-Nov-13 22:51N 21°49' E 114°24'1320.9
2017-Nov-13 22:12N 22°02' E 114°23'317.8
2017-Nov-13 22:00N 22°06' E 114°23'21 0.9
2017-Nov-12 22:05N 22°18' E 114°06'212.5
2017-Nov-12 21:57N 22°17' E 114°06'511.1
2017-Nov-12 21:29N 22°13' E 114°10'4 6.5
2017-Nov-12 20:56N 22°10' E 114°12'4 7.7
2017-Nov-12 20:25N 22°08' E 114°16'4 8.8
2017-Nov-12 20:00N 22°08' E 114°20'4 8.5
2017-Nov-12 19:30N 22°07' E 114°25'4 8.2
2017-Nov-12 19:00N 22°07' E 114°29'5 9.3
2017-Nov-12 18:30N 22°07' E 114°34'510.5
2017-Nov-12 18:00N 22°07' E 114°40'5 9.7
2017-Nov-12 17:30N 22°08' E 114°45'714.2
2017-Nov-12 17:00N 22°09' E 114°52'815.3
2017-Nov-12 16:30N 22°11' E 115°01'815.5
2017-Nov-12 16:00N 22°12' E 115°09'815.8
2017-Nov-12 15:30N 22°12' E 115°18'21714.6
2017-Nov-12 00:37N 24°02' E 118°42'  
2017-Nov-08 23:19N 35°06' E 139°44'515.1
2017-Nov-08 22:58N 35°11' E 139°46'510.0
2017-Nov-08 22:30N 35°15' E 139°46'611.8
2017-Nov-08 22:00N 35°21' E 139°43'511.0
2017-Nov-08 21:30N 35°26' E 139°45'713.7
2017-Nov-08 21:00N 35°30' E 139°51'611.9
2017-Nov-08 20:30N 35°35' E 139°47'1 2.6
2017-Nov-08 20:00N 35°36' E 139°46'0 0.2
2017-Nov-08 19:27N 35°36' E 139°46'0 0.0
2017-Nov-08 18:57N 35°36' E 139°46'0 0.0
2017-Nov-08 18:30N 35°36' E 139°46'0 0.0
2017-Nov-08 18:00N 35°36' E 139°46'0 0.0
2017-Nov-08 17:30N 35°36' E 139°46'0 0.0
2017-Nov-08 17:00N 35°36' E 139°46'0 0.0
2017-Nov-08 16:27N 35°36' E 139°46'0 0.0
2017-Nov-08 16:00N 35°36' E 139°46'0 0.0
2017-Nov-08 15:30N 35°36' E 139°46'0 0.0
2017-Nov-08 15:00N 35°36' E 139°46'0 0.0
2017-Nov-08 14:27N 35°36' E 139°46'0 0.0
2017-Nov-08 14:00N 35°36' E 139°46'0 0.0
2017-Nov-08 13:27N 35°36' E 139°46'0 0.0
2017-Nov-08 13:00N 35°36' E 139°46'0 0.0
2017-Nov-08 12:30N 35°36' E 139°46'0 0.0
2017-Nov-08 12:00N 35°36' E 139°46'0 0.0
2017-Nov-08 11:30N 35°36' E 139°46'0 0.0
2017-Nov-08 11:00N 35°36' E 139°46'0 0.0
2017-Nov-08 10:30N 35°36' E 139°46'0 0.0
2017-Nov-08 10:00N 35°36' E 139°46'0 0.6
2017-Nov-08 09:30N 35°36' E 139°46'3 6.9
2017-Nov-08 09:00N 35°34' E 139°49'4 7.5
2017-Nov-08 08:30N 35°31' E 139°52'713.3
2017-Nov-08 08:00N 35°25' E 139°48'613.0
2017-Nov-08 07:31N 35°20' E 139°44'612.1
2017-Nov-08 07:01N 35°14' E 139°47'510.5
2017-Nov-08 06:30N 35°09' E 139°46'5 9.6
2017-Nov-08 05:59N 35°04' E 139°45'610.9
2017-Nov-08 05:26N 34°58' E 139°42'  
Track history (hours):
 
Tides and Currents Weather Stations Pressure Air Temp Water Temp Dewpoint Dewpoint Depression Visibility Wind Speed Wind Dir Waves Ship Positions

MOL Commitment

Last reported at 2017-Nov-17 23:46 UTC. Time now 2017-Nov-18 21:22 UTC.
Position N 01°23' E 104°26'.

Length 316 m; draft 12.7 m.

Type: Ship (hazmat cat A). MMSI: 431332000.

Date/timePositionNaut miles runAvg speedWind from/ knotsBaromVisibWave heightAir tempDewpointWater temp
2017-Nov-17 23:46N 01°23' E 104°26'2616.6
2017-Nov-17 22:12N 01°15' E 104°01'314.7
2017-Nov-17 22:00N 01°14' E 103°58'611.4
2017-Nov-17 21:30N 01°13' E 103°53'3 5.3
2017-Nov-17 21:00N 01°15' E 103°51'1 1.5
2017-Nov-17 20:29N 01°16' E 103°51'0 0.0
2017-Nov-17 19:59N 01°16' E 103°51'0 0.0
2017-Nov-17 19:29N 01°16' E 103°51'0 0.0
2017-Nov-17 18:59N 01°16' E 103°51'0 0.0
2017-Nov-17 18:29N 01°16' E 103°51'0 0.0
2017-Nov-17 17:59N 01°16' E 103°51'0 0.0
2017-Nov-17 17:29N 01°16' E 103°51'0 0.0
2017-Nov-17 16:59N 01°16' E 103°51'0 0.0
2017-Nov-17 16:29N 01°16' E 103°51'0 0.0
2017-Nov-17 15:59N 01°16' E 103°51'0 0.0
2017-Nov-17 15:29N 01°16' E 103°51'0 0.0
2017-Nov-17 14:59N 01°16' E 103°51'0 0.0
2017-Nov-17 14:29N 01°16' E 103°51'0 0.0
2017-Nov-17 13:53N 01°16' E 103°51'0 0.0
2017-Nov-17 13:29N 01°16' E 103°51'0 0.0
2017-Nov-17 12:59N 01°16' E 103°51'0 0.0
2017-Nov-17 12:29N 01°16' E 103°51'0 0.0
2017-Nov-17 11:59N 01°16' E 103°51'0 0.0
2017-Nov-17 11:29N 01°16' E 103°51'0 0.0
2017-Nov-17 10:59N 01°16' E 103°51'0 0.0
2017-Nov-17 10:29N 01°16' E 103°51'0 0.0
2017-Nov-17 09:59N 01°16' E 103°51'0 0.0
2017-Nov-17 09:29N 01°16' E 103°51'0 0.0
2017-Nov-17 08:56N 01°16' E 103°51'0 0.0
2017-Nov-17 08:29N 01°16' E 103°51'0 0.0
2017-Nov-17 07:53N 01°16' E 103°51'0 0.0
2017-Nov-17 07:29N 01°16' E 103°51'0 0.0
2017-Nov-17 06:59N 01°16' E 103°51'0 0.0
2017-Nov-17 06:29N 01°16' E 103°51'0 0.0
2017-Nov-17 05:59N 01°16' E 103°51'0 0.0
2017-Nov-17 05:29N 01°16' E 103°51'0 0.0
2017-Nov-17 04:59N 01°16' E 103°51'0 0.0
2017-Nov-17 04:29N 01°16' E 103°51'0 0.0
2017-Nov-17 03:58N 01°16' E 103°51'0 0.0
2017-Nov-17 03:28N 01°16' E 103°51'0 0.0
2017-Nov-17 02:59N 01°16' E 103°51'0 0.0
2017-Nov-17 02:28N 01°16' E 103°51'0 0.0
2017-Nov-17 01:59N 01°16' E 103°51'0 0.0
2017-Nov-17 01:22N 01°16' E 103°51'0 0.0
2017-Nov-17 00:59N 01°16' E 103°51'0 0.0
2017-Nov-17 00:28N 01°16' E 103°51'0 0.0
2017-Nov-16 23:55N 01°16' E 103°51'0 0.0
2017-Nov-16 23:28N 01°16' E 103°51'0 0.0
2017-Nov-16 22:59N 01°16' E 103°51'1 1.2
2017-Nov-16 22:30N 01°15' E 103°51'3 6.5
2017-Nov-16 22:00N 01°14' E 103°54'4 7.4
2017-Nov-16 21:30N 01°15' E 103°57'5 9.3
2017-Nov-16 21:00N 01°16' E 104°02'611.3
2017-Nov-16 20:30N 01°17' E 104°07'  
2017-Nov-13 22:51N 21°49' E 114°24'1320.9
2017-Nov-13 22:12N 22°02' E 114°23'317.8
2017-Nov-13 22:00N 22°06' E 114°23'21 0.9
2017-Nov-12 22:05N 22°18' E 114°06'212.5
2017-Nov-12 21:57N 22°17' E 114°06'511.1
2017-Nov-12 21:29N 22°13' E 114°10'4 6.5
2017-Nov-12 20:56N 22°10' E 114°12'4 7.7
2017-Nov-12 20:25N 22°08' E 114°16'4 8.8
2017-Nov-12 20:00N 22°08' E 114°20'4 8.5
2017-Nov-12 19:30N 22°07' E 114°25'4 8.2
2017-Nov-12 19:00N 22°07' E 114°29'5 9.3
2017-Nov-12 18:30N 22°07' E 114°34'510.5
2017-Nov-12 18:00N 22°07' E 114°40'5 9.7
2017-Nov-12 17:30N 22°08' E 114°45'714.2
2017-Nov-12 17:00N 22°09' E 114°52'815.3
2017-Nov-12 16:30N 22°11' E 115°01'815.5
2017-Nov-12 16:00N 22°12' E 115°09'815.8
2017-Nov-12 15:30N 22°12' E 115°18'21714.6
2017-Nov-12 00:37N 24°02' E 118°42'  
2017-Nov-08 23:19N 35°06' E 139°44'515.1
2017-Nov-08 22:58N 35°11' E 139°46'510.0
2017-Nov-08 22:30N 35°15' E 139°46'611.8
2017-Nov-08 22:00N 35°21' E 139°43'511.0
2017-Nov-08 21:30N 35°26' E 139°45'713.7
2017-Nov-08 21:00N 35°30' E 139°51'611.9
2017-Nov-08 20:30N 35°35' E 139°47'1 2.6
2017-Nov-08 20:00N 35°36' E 139°46'0 0.2
2017-Nov-08 19:27N 35°36' E 139°46'0 0.0
2017-Nov-08 18:57N 35°36' E 139°46'0 0.0
2017-Nov-08 18:30N 35°36' E 139°46'0 0.0
2017-Nov-08 18:00N 35°36' E 139°46'0 0.0
2017-Nov-08 17:30N 35°36' E 139°46'0 0.0
2017-Nov-08 17:00N 35°36' E 139°46'0 0.0
2017-Nov-08 16:27N 35°36' E 139°46'0 0.0
2017-Nov-08 16:00N 35°36' E 139°46'0 0.0
2017-Nov-08 15:30N 35°36' E 139°46'0 0.0
2017-Nov-08 15:00N 35°36' E 139°46'0 0.0
2017-Nov-08 14:27N 35°36' E 139°46'0 0.0
2017-Nov-08 14:00N 35°36' E 139°46'0 0.0
2017-Nov-08 13:27N 35°36' E 139°46'0 0.0
2017-Nov-08 13:00N 35°36' E 139°46'0 0.0
2017-Nov-08 12:30N 35°36' E 139°46'0 0.0
2017-Nov-08 12:00N 35°36' E 139°46'0 0.0
2017-Nov-08 11:30N 35°36' E 139°46'0 0.0
2017-Nov-08 11:00N 35°36' E 139°46'0 0.0
2017-Nov-08 10:30N 35°36' E 139°46'0 0.0
2017-Nov-08 10:00N 35°36' E 139°46'0 0.6
2017-Nov-08 09:30N 35°36' E 139°46'3 6.9
2017-Nov-08 09:00N 35°34' E 139°49'4 7.5
2017-Nov-08 08:30N 35°31' E 139°52'713.3
2017-Nov-08 08:00N 35°25' E 139°48'613.0
2017-Nov-08 07:31N 35°20' E 139°44'612.1
2017-Nov-08 07:01N 35°14' E 139°47'510.5
2017-Nov-08 06:30N 35°09' E 139°46'5 9.6
2017-Nov-08 05:59N 35°04' E 139°45'610.9
2017-Nov-08 05:26N 34°58' E 139°42'  

Dump ship's entire track history